X  Cerrar Datos meteorológicos de aviación METAR     LPMT Montijo Air Base
Temperatura
12°C Temperatura
12°C Punto de rocío
100% Humedad



Viento
5 KM/H
3 MPH
1 M/S
3 NUDO



150°
SSE
Condiciones actuales

Parcialmente nublado Parcialmente nublado
Presión 1014.92 (hPa) - 29.97 (inHg)
Visibilidad 5 (milla) - 8 (km)
Aeropuerto
Código de aeropuerto LPMT

localidad: Montijo Air Base
Distancia: 6 (km)

Metar:
LPMT 062100Z 15003KT 8000 FEW015 12/12 Q1015

Hora: 2022-12-06 21:00 WET